createdAt,value
2022-10-06T00:01:07.058Z,11.90
2022-10-06T00:03:40.367Z,12.10
2022-10-06T00:06:11.511Z,12.30
2022-10-06T00:08:42.141Z,13.80
2022-10-06T00:11:11.110Z,13.90
2022-10-06T00:13:39.827Z,11.30
2022-10-06T00:16:21.876Z,12.70
2022-10-06T00:18:50.399Z,14.70
2022-10-06T00:21:18.468Z,14.90
2022-10-06T00:23:46.434Z,11.30
2022-10-06T00:26:17.071Z,11.60
2022-10-06T00:28:48.806Z,12.40
2022-10-06T00:31:17.755Z,13.40
2022-10-06T00:33:46.715Z,11.30
2022-10-06T00:36:15.298Z,11.50
2022-10-06T00:38:43.573Z,11.10
2022-10-06T00:41:17.980Z,11.20
2022-10-06T00:43:49.647Z,12.50
2022-10-06T00:46:23.323Z,14.40
2022-10-06T00:49:05.644Z,10.80
2022-10-06T00:51:35.248Z,10.80
2022-10-06T00:54:03.866Z,12.40
2022-10-06T00:56:32.321Z,10.50
2022-10-06T00:59:00.484Z,12.60
2022-10-06T01:01:32.537Z,12.70
2022-10-06T01:04:07.176Z,11.00
2022-10-06T01:06:47.842Z,11.00
2022-10-06T01:09:17.446Z,13.00
2022-10-06T01:11:48.791Z,11.80
2022-10-06T01:14:18.401Z,13.10
2022-10-06T01:16:52.925Z,13.40
2022-10-06T01:19:47.717Z,11.00
2022-10-06T01:22:18.247Z,11.40
2022-10-06T01:24:48.363Z,13.60
2022-10-06T01:27:17.470Z,12.50
2022-10-06T01:29:45.836Z,11.30
2022-10-06T01:32:14.774Z,14.70
2022-10-06T01:34:43.183Z,13.30
2022-10-06T01:37:11.384Z,12.40
2022-10-06T01:39:39.871Z,11.70
2022-10-06T01:42:07.930Z,13.10
2022-10-06T01:44:36.315Z,13.20
2022-10-06T01:47:06.074Z,11.50
2022-10-06T01:49:34.397Z,11.10
2022-10-06T01:52:03.687Z,11.30
2022-10-06T01:54:31.764Z,11.00
2022-10-06T01:56:59.735Z,11.70
2022-10-06T01:59:28.417Z,10.80
2022-10-06T02:01:56.748Z,11.70
2022-10-06T02:04:24.895Z,14.40
2022-10-06T02:06:55.600Z,12.30
2022-10-06T02:09:24.079Z,11.50
2022-10-06T02:11:54.401Z,10.50
2022-10-06T02:14:22.583Z,12.60
2022-10-06T02:16:50.960Z,11.10
2022-10-06T02:19:18.864Z,12.30
2022-10-06T02:21:46.897Z,10.90
2022-10-06T02:24:14.958Z,13.70
2022-10-06T02:26:42.857Z,12.90
2022-10-06T02:29:10.794Z,12.10
2022-10-06T02:31:38.802Z,13.40
2022-10-06T02:34:07.037Z,13.90
2022-10-06T02:36:35.119Z,11.60
2022-10-06T02:39:04.271Z,12.80
2022-10-06T02:41:32.894Z,11.90
2022-10-06T02:44:01.264Z,12.00
2022-10-06T02:46:29.351Z,13.90
2022-10-06T02:48:57.309Z,12.30
2022-10-06T02:51:25.578Z,11.60
2022-10-06T02:53:54.577Z,10.90
2022-10-06T02:56:24.694Z,13.30
2022-10-06T02:58:53.888Z,10.90
2022-10-06T03:01:33.968Z,11.70
2022-10-06T03:04:08.255Z,10.60
2022-10-06T03:06:36.223Z,11.00
2022-10-06T03:09:30.100Z,10.50
2022-10-06T03:11:58.276Z,10.00
2022-10-06T03:14:45.697Z,10.80
2022-10-06T03:17:13.768Z,12.90
2022-10-06T03:19:47.264Z,11.00
2022-10-06T03:22:15.541Z,12.00
2022-10-06T03:24:50.882Z,11.90
2022-10-06T03:27:18.850Z,12.10
2022-10-06T03:29:46.818Z,12.10
2022-10-06T03:32:15.219Z,10.90
2022-10-06T03:34:43.760Z,11.70
2022-10-06T03:37:13.187Z,12.70
2022-10-06T03:39:41.151Z,12.10
2022-10-06T03:42:09.424Z,12.60
2022-10-06T03:44:37.495Z,12.70
2022-10-06T03:47:05.870Z,12.00
2022-10-06T03:49:34.349Z,11.50
2022-10-06T03:52:02.423Z,13.20
2022-10-06T03:54:33.360Z,13.30
2022-10-06T03:57:01.531Z,12.10
2022-10-06T03:59:34.358Z,12.40
2022-10-06T04:02:05.610Z,13.50
2022-10-06T04:04:38.295Z,11.40
2022-10-06T04:07:11.127Z,10.80
2022-10-06T04:09:40.013Z,12.20
2022-10-06T04:12:09.723Z,12.00
2022-10-06T04:14:39.428Z,12.10
2022-10-06T04:17:08.727Z,11.10
2022-10-06T04:19:38.644Z,11.20
2022-10-06T04:22:06.720Z,12.10
2022-10-06T04:24:35.312Z,12.50
2022-10-06T04:27:22.410Z,11.40
2022-10-06T04:30:04.729Z,12.00
2022-10-06T04:32:33.400Z,10.50
2022-10-06T04:35:01.791Z,10.50
2022-10-06T04:37:30.263Z,10.40
2022-10-06T04:39:58.973Z,10.10
2022-10-06T04:42:34.770Z,10.50
2022-10-06T04:45:05.480Z,13.00
2022-10-06T04:47:34.118Z,14.00
2022-10-06T04:50:02.694Z,11.70
2022-10-06T04:52:31.276Z,13.50
2022-10-06T04:54:59.347Z,10.50
2022-10-06T04:57:27.996Z,9.90
2022-10-06T05:00:15.268Z,10.10
2022-10-06T05:02:46.291Z,9.60
2022-10-06T05:05:14.462Z,11.20
2022-10-06T05:07:45.915Z,9.30
2022-10-06T05:10:16.374Z,9.20
2022-10-06T05:12:44.717Z,10.10
2022-10-06T05:15:12.688Z,9.30
2022-10-06T05:17:41.270Z,9.00
2022-10-06T05:20:11.282Z,9.00
2022-10-06T05:22:39.681Z,9.90
2022-10-06T05:25:08.626Z,8.70
2022-10-06T05:27:36.621Z,10.50
2022-10-06T05:30:05.111Z,8.80
2022-10-06T05:32:36.085Z,8.70
2022-10-06T05:35:07.978Z,8.00
2022-10-06T05:37:36.385Z,8.60
2022-10-06T05:40:05.284Z,8.30
2022-10-06T05:42:33.338Z,9.10
2022-10-06T05:45:01.512Z,9.00
2022-10-06T05:47:29.910Z,7.80
2022-10-06T05:49:58.268Z,8.70
2022-10-06T05:52:26.337Z,9.40
2022-10-06T05:54:54.724Z,8.90
2022-10-06T05:57:22.990Z,7.60
2022-10-06T05:59:51.062Z,10.60
2022-10-06T06:02:19.376Z,8.30
2022-10-06T06:04:47.822Z,7.50
2022-10-06T06:07:15.780Z,7.20
2022-10-06T06:09:45.293Z,7.60
2022-10-06T06:12:14.609Z,8.70
2022-10-06T06:15:05.189Z,7.90
2022-10-06T06:17:38.380Z,8.00
2022-10-06T06:20:07.474Z,7.30
2022-10-06T06:22:36.054Z,9.30
2022-10-06T06:25:06.595Z,7.60
2022-10-06T06:27:35.888Z,9.60
2022-10-06T06:30:06.298Z,7.30
2022-10-06T06:32:34.817Z,7.90
2022-10-06T06:35:04.348Z,7.10
2022-10-06T06:37:33.694Z,7.20
2022-10-06T06:40:02.113Z,7.80
2022-10-06T06:42:32.341Z,7.40
2022-10-06T06:45:23.606Z,8.50
2022-10-06T06:48:02.537Z,8.40
2022-10-06T06:50:32.756Z,8.60
2022-10-06T06:53:02.597Z,8.00
2022-10-06T06:55:32.069Z,7.30
2022-10-06T06:58:00.963Z,6.90
2022-10-06T07:00:33.807Z,7.40
2022-10-06T07:03:04.368Z,6.50
2022-10-06T07:05:33.259Z,8.80
2022-10-06T07:08:01.315Z,8.40
2022-10-06T07:10:31.701Z,7.20
2022-10-06T07:12:59.725Z,7.60
2022-10-06T07:15:46.409Z,7.00
2022-10-06T07:18:33.647Z,7.70
2022-10-06T07:21:21.278Z,6.70
2022-10-06T07:24:09.827Z,5.70
2022-10-06T07:26:38.000Z,5.90
2022-10-06T07:29:05.967Z,4.90
2022-10-06T07:31:36.272Z,5.00
2022-10-06T07:34:05.000Z,4.80
2022-10-06T07:36:33.149Z,5.10
2022-10-06T07:39:01.224Z,6.10
2022-10-06T07:41:31.619Z,5.80
2022-10-06T07:44:07.963Z,4.90
2022-10-06T07:46:37.720Z,7.70
2022-10-06T07:49:17.978Z,5.60
2022-10-06T07:51:46.457Z,4.80
2022-10-06T07:54:14.731Z,6.80
2022-10-06T07:57:01.541Z,6.90
2022-10-06T07:59:29.435Z,5.30
2022-10-06T08:01:57.490Z,5.90
2022-10-06T08:04:25.444Z,4.80
2022-10-06T08:06:54.745Z,4.20
2022-10-06T08:09:22.712Z,4.80
2022-10-06T08:11:50.994Z,4.00
2022-10-06T08:14:18.978Z,6.30
2022-10-06T08:16:47.131Z,4.70
2022-10-06T08:19:17.255Z,4.70
2022-10-06T08:21:45.320Z,3.80
2022-10-06T08:24:15.812Z,3.40
2022-10-06T08:26:44.085Z,5.20
2022-10-06T08:29:12.032Z,3.90
2022-10-06T08:31:40.180Z,3.30
2022-10-06T08:34:11.996Z,3.80
2022-10-06T08:36:45.013Z,3.70
2022-10-06T08:39:20.480Z,4.30
2022-10-06T08:41:52.309Z,3.20
2022-10-06T08:44:39.023Z,11.90
2022-10-06T08:47:18.552Z,5.80
2022-10-06T08:49:48.496Z,5.10
2022-10-06T08:52:34.868Z,3.80
2022-10-06T08:55:02.733Z,4.80
2022-10-06T08:57:44.925Z,4.70
2022-10-06T09:00:19.647Z,2.70
2022-10-06T09:02:51.954Z,3.90
2022-10-06T09:05:28.648Z,2.90
2022-10-06T09:08:20.923Z,4.60
2022-10-06T09:11:13.793Z,3.10
2022-10-06T09:13:53.380Z,4.10
2022-10-06T09:16:32.499Z,3.90
2022-10-06T09:19:24.833Z,4.80
2022-10-06T09:21:54.585Z,2.80
2022-10-06T09:24:30.463Z,2.60
2022-10-06T09:26:59.184Z,2.10
2022-10-06T09:29:32.104Z,2.00
2022-10-06T09:32:03.058Z,1.50
2022-10-06T09:34:49.474Z,4.20
2022-10-06T09:37:19.759Z,2.30
2022-10-06T09:39:52.633Z,3.00
2022-10-06T09:42:23.612Z,2.30
2022-10-06T09:44:51.616Z,3.00
2022-10-06T09:47:28.397Z,2.30
2022-10-06T09:50:17.770Z,2.40
2022-10-06T09:52:58.065Z,1.40
2022-10-06T09:55:31.161Z,1.60
2022-10-06T09:58:00.276Z,3.40
2022-10-06T10:00:36.752Z,2.20
2022-10-06T10:03:13.883Z,2.10
2022-10-06T10:05:49.264Z,1.50
2022-10-06T10:08:22.496Z,2.10
2022-10-06T10:11:30.365Z,1.30
2022-10-06T10:13:59.664Z,3.10
2022-10-06T10:16:34.861Z,1.40
2022-10-06T10:19:05.858Z,3.00
2022-10-06T10:21:35.591Z,2.20
2022-10-06T10:24:15.136Z,2.50
2022-10-06T10:27:07.229Z,1.70
2022-10-06T10:30:02.816Z,3.10
2022-10-06T10:32:39.832Z,1.20
2022-10-06T10:35:18.226Z,3.40
2022-10-06T10:37:57.074Z,3.50
2022-10-06T10:40:31.628Z,3.20
2022-10-06T10:43:15.247Z,4.00
2022-10-06T10:45:58.051Z,3.50
2022-10-06T10:48:51.693Z,2.90
2022-10-06T10:51:34.724Z,3.70
2022-10-06T10:54:15.995Z,3.70
2022-10-06T10:56:45.258Z,3.20
2022-10-06T10:59:25.442Z,3.70
2022-10-06T11:02:02.065Z,4.30
2022-10-06T11:04:31.039Z,2.50
2022-10-06T11:06:59.077Z,5.60
2022-10-06T11:09:48.958Z,4.40
2022-10-06T11:12:42.937Z,6.90
2022-10-06T11:15:48.617Z,6.80
2022-10-06T11:18:41.558Z,2.80
2022-10-06T11:21:26.603Z,3.20
2022-10-06T11:24:14.854Z,2.90
2022-10-06T11:27:24.600Z,5.00
2022-10-06T11:30:19.760Z,3.50
2022-10-06T11:33:08.124Z,3.20
2022-10-06T11:35:41.868Z,2.70
2022-10-06T11:38:18.787Z,3.30
2022-10-06T11:40:54.186Z,4.40
2022-10-06T11:43:41.147Z,3.70
2022-10-06T11:46:32.414Z,4.50
2022-10-06T11:49:28.954Z,6.20
2022-10-06T11:52:08.194Z,5.90
2022-10-06T11:54:39.524Z,6.30
2022-10-06T11:57:26.221Z,4.00
2022-10-06T12:00:03.632Z,5.00
2022-10-06T12:02:35.009Z,3.20
2022-10-06T12:08:03.055Z,4.00
2022-10-06T12:10:33.784Z,3.90
2022-10-06T12:13:11.380Z,5.80
2022-10-06T12:18:49.829Z,4.90
2022-10-06T12:21:43.310Z,4.20
2022-10-06T12:24:20.874Z,3.50
2022-10-06T12:27:03.158Z,2.80
2022-10-06T12:29:49.268Z,2.70
2022-10-06T12:32:34.133Z,2.20
2022-10-06T12:35:15.455Z,2.60
2022-10-06T12:37:54.000Z,3.00
2022-10-06T12:40:47.241Z,4.70
2022-10-06T12:43:15.383Z,4.40
2022-10-06T12:46:05.064Z,2.50
2022-10-06T12:48:54.717Z,3.50
2022-10-06T12:51:43.975Z,2.90
2022-10-06T12:54:58.875Z,5.70
2022-10-06T12:57:30.872Z,4.40
2022-10-06T12:59:58.985Z,5.50
2022-10-06T13:02:28.497Z,4.70
2022-10-06T13:05:01.015Z,6.20
2022-10-06T13:07:32.155Z,5.90
2022-10-06T13:10:15.261Z,3.40
2022-10-06T13:12:47.323Z,5.80
2022-10-06T13:18:13.123Z,5.10
2022-10-06T13:20:51.458Z,4.00
2022-10-06T13:23:32.512Z,5.20
2022-10-06T13:26:05.317Z,5.60
2022-10-06T13:28:33.329Z,2.80
2022-10-06T13:31:23.143Z,3.00
2022-10-06T13:33:55.793Z,4.10
2022-10-06T13:36:24.561Z,6.40
2022-10-06T13:38:53.513Z,4.20
2022-10-06T13:41:26.996Z,4.90
2022-10-06T13:44:25.888Z,5.90
2022-10-06T13:46:58.673Z,4.90
2022-10-06T13:49:34.730Z,4.00
2022-10-06T13:52:10.099Z,4.50
2022-10-06T13:54:55.591Z,2.60
2022-10-06T13:57:44.210Z,6.00
2022-10-06T14:00:23.801Z,4.10
2022-10-06T14:02:55.870Z,4.70
2022-10-06T14:05:32.663Z,5.20
2022-10-06T14:08:04.437Z,5.10
2022-10-06T14:10:37.875Z,5.60
2022-10-06T14:13:16.060Z,4.60
2022-10-06T14:15:50.610Z,3.30
2022-10-06T14:18:23.344Z,4.80
2022-10-06T14:20:53.570Z,4.40
2022-10-06T14:23:42.321Z,4.20
2022-10-06T14:26:13.038Z,6.20
2022-10-06T14:28:47.389Z,3.50
2022-10-06T14:31:16.042Z,5.30
2022-10-06T14:33:45.520Z,7.40
2022-10-06T14:36:28.237Z,4.70
2022-10-06T14:38:58.491Z,5.50
2022-10-06T14:41:29.494Z,2.90
2022-10-06T14:43:58.683Z,3.60
2022-10-06T14:46:26.971Z,4.60
2022-10-06T14:48:55.863Z,4.40
2022-10-06T14:51:26.492Z,3.70
2022-10-06T14:53:57.420Z,4.70
2022-10-06T14:56:29.101Z,6.90
2022-10-06T14:59:00.248Z,4.10
2022-10-06T15:01:30.178Z,5.10
2022-10-06T15:04:00.951Z,5.80
2022-10-06T15:06:47.667Z,4.60
2022-10-06T15:09:15.648Z,4.00
2022-10-06T15:11:43.753Z,7.50
2022-10-06T15:14:11.783Z,6.10
2022-10-06T15:16:42.418Z,6.00
2022-10-06T15:19:12.600Z,3.70
2022-10-06T15:21:42.115Z,4.00
2022-10-06T15:24:14.225Z,6.90
2022-10-06T15:27:02.082Z,4.50
2022-10-06T15:29:59.128Z,5.40
2022-10-06T15:32:27.095Z,6.30
2022-10-06T15:34:55.473Z,5.50
2022-10-06T15:37:23.372Z,7.00
2022-10-06T15:39:52.433Z,6.50
2022-10-06T15:42:24.395Z,6.90
2022-10-06T15:44:52.362Z,6.00
2022-10-06T15:47:21.055Z,7.70
2022-10-06T15:49:49.530Z,6.60
2022-10-06T15:52:18.755Z,5.90
2022-10-06T15:54:48.846Z,8.60
2022-10-06T15:57:21.037Z,8.10
2022-10-06T15:59:49.498Z,6.70
2022-10-06T16:02:20.122Z,7.90
2022-10-06T16:04:55.471Z,7.10
2022-10-06T16:07:23.609Z,7.70
2022-10-06T16:09:52.022Z,7.60
2022-10-06T16:12:22.444Z,7.70
2022-10-06T16:14:50.408Z,7.60
2022-10-06T16:17:18.889Z,6.20
2022-10-06T16:19:47.370Z,6.40
2022-10-06T16:22:18.250Z,8.00
2022-10-06T16:24:46.169Z,9.80
2022-10-06T16:27:15.354Z,6.60
2022-10-06T16:29:43.746Z,7.20
2022-10-06T16:32:11.694Z,8.90
2022-10-06T16:34:39.579Z,7.10
2022-10-06T16:37:07.549Z,6.80
2022-10-06T16:39:35.524Z,6.50
2022-10-06T16:42:04.102Z,7.90
2022-10-06T16:44:32.114Z,7.80
2022-10-06T16:47:00.286Z,8.30
2022-10-06T16:49:28.619Z,7.80
2022-10-06T16:51:56.604Z,8.50
2022-10-06T16:54:25.800Z,10.50
2022-10-06T16:56:58.358Z,11.30
2022-10-06T16:59:26.739Z,11.30
2022-10-06T17:01:54.705Z,10.60
2022-10-06T17:04:25.410Z,13.40
2022-10-06T17:06:55.570Z,10.80
2022-10-06T17:09:28.102Z,13.30
2022-10-06T17:11:59.169Z,14.10
2022-10-06T17:14:28.698Z,13.40
2022-10-06T17:16:57.978Z,11.20
2022-10-06T17:19:28.859Z,11.10
2022-10-06T17:21:59.323Z,10.00
2022-10-06T17:24:29.735Z,10.70
2022-10-06T17:26:58.553Z,10.30
2022-10-06T17:29:27.308Z,9.70
2022-10-06T17:32:02.717Z,9.00
2022-10-06T17:34:33.444Z,8.40
2022-10-06T17:37:02.521Z,12.10
2022-10-06T17:39:30.794Z,11.80
2022-10-06T17:41:59.371Z,11.90
2022-10-06T17:44:28.886Z,8.00
2022-10-06T17:47:00.391Z,9.20
2022-10-06T17:49:32.755Z,9.10
2022-10-06T17:52:01.028Z,6.30
2022-10-06T17:54:31.903Z,9.00
2022-10-06T17:57:00.082Z,10.90
2022-10-06T17:59:33.940Z,13.20
2022-10-06T18:02:03.145Z,10.20
2022-10-06T18:04:33.887Z,13.80
2022-10-06T18:07:03.318Z,12.40
2022-10-06T18:09:31.391Z,11.90
2022-10-06T18:12:00.312Z,11.00
2022-10-06T18:14:34.537Z,11.10
2022-10-06T18:17:04.202Z,13.00
2022-10-06T18:19:36.548Z,12.40
2022-10-06T18:22:10.263Z,11.20
2022-10-06T18:24:39.197Z,9.80
2022-10-06T18:27:08.377Z,13.10
2022-10-06T18:29:38.613Z,12.90
2022-10-06T18:37:44.437Z,11.10
2022-10-06T18:40:14.891Z,12.70
2022-10-06T18:42:42.968Z,13.10
2022-10-06T18:45:33.155Z,12.20
2022-10-06T18:48:21.197Z,19.50
2022-10-06T18:51:02.282Z,39.20
2022-10-06T18:53:32.802Z,38.60
2022-10-06T18:56:00.684Z,38.50
2022-10-06T18:58:28.633Z,39.20
2022-10-06T19:00:56.779Z,28.30
2022-10-06T19:03:26.923Z,34.90
2022-10-06T19:05:54.895Z,34.80
2022-10-06T19:08:22.761Z,33.80
2022-10-06T19:11:09.064Z,34.10
2022-10-06T19:13:37.537Z,32.30
2022-10-06T19:16:06.469Z,34.10
2022-10-06T19:18:37.262Z,27.00
2022-10-06T19:21:09.507Z,21.90
2022-10-06T19:23:38.939Z,13.90
2022-10-06T19:26:09.562Z,11.60
2022-10-06T19:28:38.346Z,9.30
2022-10-06T19:31:13.190Z,14.10
2022-10-06T19:33:41.253Z,18.70
2022-10-06T19:36:09.524Z,19.60
2022-10-06T19:38:38.621Z,20.90
2022-10-06T19:41:25.962Z,20.90
2022-10-06T19:43:54.115Z,19.20
2022-10-06T19:46:22.133Z,29.90
2022-10-06T19:48:58.549Z,20.80
2022-10-06T19:51:26.619Z,18.60
2022-10-06T19:53:54.591Z,17.50
2022-10-06T19:56:25.361Z,17.20
2022-10-06T19:58:53.877Z,18.10
2022-10-06T20:01:21.965Z,16.30
2022-10-06T20:03:50.130Z,17.90
2022-10-06T20:06:19.703Z,16.70
2022-10-06T20:08:47.719Z,16.30
2022-10-06T20:11:21.685Z,14.70
2022-10-06T20:13:50.251Z,13.70
2022-10-06T20:16:20.219Z,14.80
2022-10-06T20:18:50.714Z,13.10
2022-10-06T20:21:22.261Z,16.90
2022-10-06T20:23:53.905Z,13.40
2022-10-06T20:26:24.798Z,14.30
2022-10-06T20:28:53.994Z,11.50
2022-10-06T20:31:34.565Z,14.90
2022-10-06T20:34:05.291Z,14.20
2022-10-06T20:36:35.081Z,14.60
2022-10-06T20:39:23.650Z,12.00
2022-10-06T20:41:53.410Z,13.70
2022-10-06T20:44:21.432Z,13.50
2022-10-06T20:46:49.398Z,10.40
2022-10-06T20:49:17.868Z,12.40
2022-10-06T20:51:50.868Z,14.60
2022-10-06T20:54:24.215Z,12.80
2022-10-06T20:56:53.969Z,13.70
2022-10-06T20:59:23.886Z,11.60
2022-10-06T21:01:52.564Z,13.70
2022-10-06T21:04:21.245Z,13.80
2022-10-06T21:06:49.539Z,14.30
2022-10-06T21:09:19.674Z,14.90
2022-10-06T21:11:49.464Z,14.60
2022-10-06T21:14:18.440Z,16.40
2022-10-06T21:16:48.480Z,12.60
2022-10-06T21:19:18.288Z,14.40
2022-10-06T21:21:53.368Z,15.00
2022-10-06T21:24:21.596Z,14.40
2022-10-06T21:26:52.561Z,13.00
2022-10-06T21:29:21.627Z,15.80
2022-10-06T21:31:49.697Z,14.60
2022-10-06T21:34:17.973Z,14.70
2022-10-06T21:36:46.044Z,14.00
2022-10-06T21:39:14.215Z,13.10
2022-10-06T21:41:42.515Z,15.10
2022-10-06T21:44:18.526Z,13.50
2022-10-06T21:46:49.519Z,14.80
2022-10-06T21:49:21.826Z,14.90
2022-10-06T21:51:53.163Z,14.00
2022-10-06T21:54:22.964Z,12.80
2022-10-06T21:56:51.703Z,14.40
2022-10-06T21:59:19.684Z,14.50
2022-10-06T22:01:50.459Z,14.00
2022-10-06T22:04:18.988Z,15.60
2022-10-06T22:06:51.976Z,14.80
2022-10-06T22:09:20.886Z,13.70
2022-10-06T22:11:49.817Z,12.80
2022-10-06T22:14:19.512Z,13.30
2022-10-06T22:16:48.561Z,14.50
2022-10-06T22:19:18.273Z,13.80
2022-10-06T22:21:48.497Z,13.90
2022-10-06T22:24:20.445Z,14.70
2022-10-06T22:26:49.351Z,13.70
2022-10-06T22:29:19.352Z,12.10
2022-10-06T22:31:48.656Z,13.90
2022-10-06T22:34:20.718Z,12.90
2022-10-06T22:36:48.798Z,12.30
2022-10-06T22:39:17.013Z,12.70
2022-10-06T22:41:45.575Z,13.10
2022-10-06T22:44:13.823Z,12.30
2022-10-06T22:46:42.150Z,13.60
2022-10-06T22:49:10.579Z,12.70
2022-10-06T22:51:38.648Z,11.80
2022-10-06T22:54:06.655Z,11.20
2022-10-06T22:56:35.191Z,11.50
2022-10-06T22:59:03.550Z,9.80
2022-10-06T23:01:31.643Z,11.60
2022-10-06T23:04:00.430Z,11.30
2022-10-06T23:06:31.877Z,12.40
2022-10-06T23:09:00.167Z,10.20
2022-10-06T23:11:28.661Z,9.90
2022-10-06T23:13:57.421Z,11.00
2022-10-06T23:16:25.642Z,10.60
2022-10-06T23:18:55.299Z,10.40
2022-10-06T23:21:27.618Z,11.90
2022-10-06T23:23:59.459Z,9.40
2022-10-06T23:26:27.939Z,9.80
2022-10-06T23:28:59.157Z,10.60
2022-10-06T23:31:28.926Z,10.00
2022-10-06T23:33:57.449Z,9.60
2022-10-06T23:36:25.622Z,10.30
2022-10-06T23:38:53.791Z,10.20
2022-10-06T23:41:22.297Z,10.00
2022-10-06T23:43:50.344Z,11.50
2022-10-06T23:46:18.475Z,10.10
2022-10-06T23:48:47.100Z,9.10
2022-10-06T23:51:15.716Z,12.10
2022-10-06T23:53:44.334Z,9.60
2022-10-06T23:56:12.946Z,11.20
2022-10-06T23:58:42.633Z,10.50
